Time;durP1;ratioP1;P1;durP2;ratioP2;P2;SDS_P1;SDS_P2;PMS_P1;PMS_P2;Temp;Humidity;BMP_temperature;BMP_pressure;BME280_temperature;BME280_humidity;BME280_pressure;Samples;Min_cycle;Max_cycle;Signal;HPM_P1;HPM_P2
2022/09/05 00:01:41;;;;;;;4.00;2.15;;;18.30;84.00;;;;;;4988412;28;20050;-54
2022/09/05 00:04:21;;;;;;;5.65;2.30;;;18.30;84.50;;;;;;4982260;28;20056;-55
2022/09/05 00:07:12;;;;;;;4.53;2.08;;;18.30;84.70;;;;;;4986686;28;20356;-55
2022/09/05 00:09:43;;;;;;;1.98;1.88;;;18.20;84.70;;;;;;4953868;28;20062;-56
2022/09/05 00:12:10;;;;;;;6.47;2.15;;;18.20;84.90;;;;;;4969870;28;20334;-54
2022/09/05 00:14:58;;;;;;;2.92;2.15;;;18.10;85.40;;;;;;4976935;28;20042;-56
2022/09/05 00:17:56;;;;;;;2.35;1.83;;;18.10;85.30;;;;;;5010787;28;20049;-56
2022/09/05 00:20:43;;;;;;;3.30;1.70;;;18.00;85.90;;;;;;5030166;28;20110;-54
2022/09/05 00:23:11;;;;;;;5.88;2.78;;;17.90;86.20;;;;;;5032720;28;20114;-53
2022/09/05 00:26:07;;;;;;;6.20;2.55;;;17.90;86.10;;;;;;5042965;28;20150;-54
2022/09/05 00:28:55;;;;;;;1.83;1.70;;;17.80;86.90;;;;;;5040771;28;20450;-54
2022/09/05 00:31:56;;;;;;;3.90;2.05;;;17.70;87.10;;;;;;5030057;28;20037;-53
2022/09/05 00:34:52;;;;;;;10.55;2.75;;;17.70;87.40;;;;;;5032870;28;20041;-54
2022/09/05 00:37:32;;;;;;;59.63;5.47;;;17.60;87.60;;;;;;5046638;28;20037;-53
2022/09/05 00:40:12;;;;;;;3.97;2.13;;;17.50;87.70;;;;;;5046544;28;20492;-54
2022/09/05 00:42:37;;;;;;;5.28;2.00;;;17.40;87.90;;;;;;5047965;28;20037;-56
2022/09/05 00:45:08;;;;;;;5.10;2.22;;;17.40;87.60;;;;;;5037935;28;20057;-54
2022/09/05 00:48:01;;;;;;;2.40;2.20;;;17.40;87.90;;;;;;5042451;28;20033;-55
2022/09/05 00:50:46;;;;;;;2.30;2.03;;;17.40;88.40;;;;;;5031207;28;20427;-53
2022/09/05 00:53:24;;;;;;;4.55;2.22;;;17.30;88.50;;;;;;5036045;28;20048;-54
2022/09/05 00:56:21;;;;;;;2.47;2.28;;;17.30;89.20;;;;;;5041726;28;20041;-55
2022/09/05 00:59:07;;;;;;;7.95;2.88;;;17.20;89.40;;;;;;5030873;28;20041;-55
2022/09/05 01:01:52;;;;;;;24.63;3.47;;;17.20;89.60;;;;;;5047704;28;20033;-55
2022/09/05 01:04:42;;;;;;;7.32;2.65;;;17.20;89.80;;;;;;5032016;28;20496;-56
2022/09/05 01:07:19;;;;;;;6.85;2.90;;;17.20;89.70;;;;;;5038779;28;20055;-54
2022/09/05 01:09:55;;;;;;;2.88;2.67;;;17.20;89.90;;;;;;5047195;28;20040;-54
2022/09/05 01:12:49;;;;;;;2.75;2.55;;;17.20;89.70;;;;;;5031001;28;20053;-54
2022/09/05 01:15:21;;;;;;;4.68;2.70;;;17.20;90.00;;;;;;5042365;28;20418;-54
2022/09/05 01:17:55;;;;;;;4.60;2.75;;;17.20;89.90;;;;;;5030799;28;20049;-55
2022/09/05 01:20:45;;;;;;;4.38;3.25;;;17.20;90.00;;;;;;5041815;28;20411;-54
2022/09/05 01:23:40;;;;;;;4.57;2.92;;;17.30;89.90;;;;;;5043752;28;20045;-56
2022/09/05 01:26:19;;;;;;;5.22;3.22;;;17.30;90.20;;;;;;5043665;28;20041;-55
2022/09/05 01:28:58;;;;;;;3.67;3.33;;;17.30;90.10;;;;;;5034499;28;20048;-55
2022/09/05 01:31:23;;;;;;;2.92;2.72;;;17.40;90.10;;;;;;5033265;28;20049;-57
2022/09/05 01:34:01;;;;;;;2.70;2.50;;;17.40;90.00;;;;;;5035281;28;20116;-55
2022/09/05 01:36:38;;;;;;;6.68;2.85;;;17.50;90.10;;;;;;5039090;28;20119;-54
2022/09/05 01:39:14;;;;;;;3.17;2.88;;;17.50;90.00;;;;;;5039741;28;20041;-56
2022/09/05 01:41:53;;;;;;;6.22;3.40;;;17.50;90.00;;;;;;5035401;28;20037;-55
2022/09/05 01:44:46;;;;;;;7.20;3.35;;;17.60;89.90;;;;;;5033900;28;20088;-54
2022/09/05 01:47:21;;;;;;;3.40;3.10;;;17.70;89.90;;;;;;5038451;28;20052;-56
2022/09/05 01:50:04;;;;;;;3.47;3.17;;;17.70;89.60;;;;;;5039502;28;20041;-55
2022/09/05 01:52:49;;;;;;;3.70;3.40;;;17.60;89.70;;;;;;5051707;28;20045;-56
2022/09/05 01:55:28;;;;;;;3.85;2.85;;;17.60;89.80;;;;;;5050809;28;20041;-55
2022/09/05 01:58:15;;;;;;;8.13;2.75;;;17.60;89.50;;;;;;5042483;28;20046;-54
2022/09/05 02:00:57;;;;;;;;;;;17.50;89.60;;;;;;5029586;28;20045;-56
2022/09/05 02:04:03;;;;;;;3.25;3.05;;;17.40;90.00;;;;;;5037796;28;19924;-54
2022/09/05 02:06:52;;;;;;;4.63;3.78;;;17.30;90.00;;;;;;5043425;28;20056;-55
2022/09/05 02:09:47;;;;;;;5.65;3.50;;;17.20;89.90;;;;;;5047336;28;20075;-53
2022/09/05 02:12:27;;;;;;;3.20;2.92;;;17.10;90.10;;;;;;5032976;28;20493;-56
2022/09/05 02:15:00;;;;;;;4.57;3.28;;;17.00;90.20;;;;;;5044192;28;20041;-54
2022/09/05 02:17:42;;;;;;;8.00;3.95;;;17.00;90.30;;;;;;5051753;28;20051;-54
2022/09/05 02:20:20;;;;;;;4.00;3.53;;;16.90;90.40;;;;;;5047088;28;20092;-55
2022/09/05 02:22:55;;;;;;;7.28;3.20;;;17.00;90.50;;;;;;5050515;28;20032;-54
2022/09/05 02:25:46;;;;;;;61.70;7.22;;;17.00;90.40;;;;;;5038624;28;20041;-54
2022/09/05 02:28:42;;;;;;;37.80;5.05;;;17.00;90.50;;;;;;5034987;28;20510;-55
2022/09/05 02:31:22;;;;;;;4.80;3.88;;;17.00;90.60;;;;;;5030869;28;20037;-54
2022/09/05 02:34:05;;;;;;;11.40;3.33;;;17.00;90.50;;;;;;5041464;28;20073;-54
2022/09/05 02:36:46;;;;;;;14.77;5.15;;;17.00;90.50;;;;;;5033012;28;20175;-55
2022/09/05 02:39:38;;;;;;;12.82;4.60;;;17.00;90.40;;;;;;5041248;28;20033;-54
2022/09/05 02:42:28;;;;;;;9.18;4.28;;;16.90;90.50;;;;;;5032100;28;20058;-56
2022/09/05 02:45:09;;;;;;;6.30;4.13;;;16.90;90.50;;;;;;5045688;28;20041;-56
2022/09/05 02:48:13;;;;;;;10.10;4.93;;;16.90;90.50;;;;;;5032708;28;20459;-55
2022/09/05 02:50:55;;;;;;;5.63;5.03;;;16.90;90.60;;;;;;5036504;28;20049;-53
2022/09/05 02:53:22;;;;;;;6.20;4.40;;;16.80;90.70;;;;;;5032289;28;20037;-57
2022/09/05 02:56:09;;;;;;;6.97;3.75;;;16.70;90.50;;;;;;5033530;28;20534;-54
2022/09/05 02:58:53;;;;;;;8.52;4.60;;;16.80;90.70;;;;;;5043547;28;20092;-55
2022/09/05 03:01:31;;;;;;;7.10;4.88;;;16.70;90.90;;;;;;5046940;28;20044;-56
2022/09/05 03:04:24;;;;;;;7.68;4.20;;;16.80;91.00;;;;;;5033713;28;20064;-55
2022/09/05 03:07:23;;;;;;;8.35;4.80;;;16.80;90.90;;;;;;5050545;28;20100;-56
2022/09/05 03:10:15;;;;;;;5.25;4.72;;;16.70;90.90;;;;;;5032427;28;20124;-54
2022/09/05 03:13:13;;;;;;;5.05;4.57;;;16.60;90.90;;;;;;5031207;28;20076;-57
2022/09/05 03:16:04;;;;;;;7.75;5.07;;;16.60;91.10;;;;;;5047845;28;20045;-53
2022/09/05 03:19:03;;;;;;;5.72;5.22;;;16.60;91.40;;;;;;5043557;28;20115;-54
2022/09/05 03:21:59;;;;;;;6.03;4.47;;;16.50;91.40;;;;;;5041912;28;20036;-57
2022/09/05 03:25:02;;;;;;;6.57;4.88;;;16.50;91.50;;;;;;5035662;28;20048;-56
2022/09/05 03:28:02;;;;;;;7.55;4.93;;;16.50;91.70;;;;;;5041728;28;20466;-54
2022/09/05 03:30:53;;;;;;;5.80;4.85;;;16.40;91.70;;;;;;5041396;28;20529;-55
2022/09/05 03:33:56;;;;;;;9.57;5.22;;;16.40;91.80;;;;;;5046848;28;20112;-55
2022/09/05 03:36:39;;;;;;;8.23;5.20;;;16.30;91.80;;;;;;5037287;28;20056;-56
2022/09/05 03:39:26;;;;;;;7.45;5.00;;;16.20;91.70;;;;;;5044008;28;20037;-53
2022/09/05 03:41:58;;;;;;;37.00;6.28;;;16.20;91.90;;;;;;5044204;28;20041;-53
2022/09/05 03:44:42;;;;;;;59.10;7.18;;;16.10;92.10;;;;;;5030031;28;20052;-54
2022/09/05 03:48:02;;;;;;;6.72;4.88;;;16.10;92.20;;;;;;5032118;28;20415;-56
2022/09/05 03:50:52;;;;;;;9.20;5.35;;;16.10;92.40;;;;;;4966979;28;20071;-57
2022/09/05 03:53:47;;;;;;;8.75;4.63;;;16.10;92.40;;;;;;4965073;28;20054;-54
2022/09/05 03:56:47;;;;;;;8.30;4.82;;;16.10;92.60;;;;;;4969289;28;20051;-53
2022/09/05 03:59:50;;;;;;;12.48;6.03;;;16.00;92.60;;;;;;4953427;28;20126;-55
2022/09/05 04:02:26;;;;;;;8.40;5.05;;;16.00;92.60;;;;;;4962902;28;20407;-54
2022/09/05 04:04:54;;;;;;;9.32;5.35;;;15.90;92.60;;;;;;4965570;28;20050;-54
2022/09/05 04:07:29;;;;;;;7.03;5.75;;;15.90;92.60;;;;;;4968402;28;20557;-54
2022/09/05 04:10:06;;;;;;;7.28;5.30;;;15.90;92.70;;;;;;4966745;28;20136;-55
2022/09/05 04:12:45;;;;;;;;;;;15.90;92.80;;;;;;4967756;28;20529;-54
2022/09/05 04:15:35;;;;;;;5.90;4.80;;;15.90;93.10;;;;;;4955684;28;20133;-54
2022/09/05 04:18:10;;;;;;;5.82;5.25;;;15.90;93.20;;;;;;4952841;28;20054;-55
2022/09/05 04:21:00;;;;;;;8.55;5.05;;;15.90;93.10;;;;;;4954024;28;20525;-54
2022/09/05 04:23:39;;;;;;;6.35;5.20;;;15.90;93.10;;;;;;4954693;28;20043;-56
2022/09/05 04:26:23;;;;;;;6.47;5.88;;;15.80;93.10;;;;;;5047749;28;20051;-54
2022/09/05 04:29:16;;;;;;;8.35;6.03;;;15.80;93.30;;;;;;5046544;28;20067;-54
2022/09/05 04:32:01;;;;;;;5.97;5.43;;;15.80;93.30;;;;;;5048190;28;20460;-54
2022/09/05 04:35:00;;;;;;;6.10;5.50;;;15.80;93.30;;;;;;5047199;28;20230;-56
2022/09/05 04:37:48;;;;;;;9.02;6.20;;;15.80;93.40;;;;;;5030081;28;20052;-54
2022/09/05 04:40:55;;;;;;;6.40;5.70;;;15.70;93.60;;;;;;5033504;28;20045;-56
2022/09/05 04:43:50;;;;;;;6.60;5.50;;;15.70;93.80;;;;;;5021354;28;20083;-56
2022/09/05 04:46:25;;;;;;;5.90;5.40;;;15.70;93.90;;;;;;5012468;28;20586;-55
2022/09/05 04:48:59;;;;;;;7.10;6.53;;;15.60;93.70;;;;;;5042837;28;20095;-56
2022/09/05 04:51:51;;;;;;;7.32;6.47;;;15.60;93.90;;;;;;5041741;28;20067;-55
2022/09/05 04:54:52;;;;;;;6.68;6.10;;;15.60;94.20;;;;;;5037386;28;20037;-56
2022/09/05 04:57:29;;;;;;;9.27;6.00;;;15.60;94.30;;;;;;5024929;28;20057;-56
2022/09/05 04:59:57;;;;;;;8.65;5.95;;;15.50;94.20;;;;;;5045416;28;20036;-55
2022/09/05 05:02:43;;;;;;;11.07;6.03;;;15.50;94.10;;;;;;5049452;28;20075;-54
2022/09/05 05:05:45;;;;;;;7.30;5.88;;;15.50;94.30;;;;;;5040774;28;20048;-57
2022/09/05 05:08:52;;;;;;;6.95;6.22;;;15.50;94.40;;;;;;5030197;28;20049;-54
2022/09/05 05:11:43;;;;;;;9.45;6.93;;;15.50;94.40;;;;;;5044526;28;20403;-54
2022/09/05 05:14:45;;;;;;;6.82;6.07;;;15.50;94.50;;;;;;5033652;28;20030;-53
2022/09/05 05:17:29;;;;;;;7.60;5.97;;;15.50;94.80;;;;;;4991394;28;20053;-54
2022/09/05 05:20:26;;;;;;;5.90;5.43;;;15.50;94.90;;;;;;4970765;28;20038;-54
2022/09/05 05:23:07;;;;;;;8.27;5.80;;;15.40;94.90;;;;;;4970040;28;20042;-57
2022/09/05 05:25:48;;;;;;;8.70;6.50;;;15.50;95.10;;;;;;4990850;28;20043;-57
2022/09/05 05:28:46;;;;;;;10.85;6.63;;;15.50;95.30;;;;;;4989115;28;20053;-55
2022/09/05 05:31:22;;;;;;;12.85;6.20;;;15.60;95.90;;;;;;4982196;28;20420;-54
2022/09/05 05:33:53;;;;;;;7.72;6.10;;;15.60;95.70;;;;;;4986301;28;20050;-54
2022/09/05 05:36:33;;;;;;;8.15;6.63;;;15.70;95.80;;;;;;4983463;28;20579;-56
2022/09/05 05:39:12;;;;;;;9.35;6.30;;;15.80;96.00;;;;;;4967875;28;20053;-55
2022/09/05 05:41:49;;;;;;;6.60;6.10;;;15.80;96.10;;;;;;4990958;28;20509;-55
2022/09/05 05:44:18;;;;;;;6.50;5.82;;;15.90;96.10;;;;;;4990667;28;20073;-54
2022/09/05 05:46:55;;;;;;;8.80;6.35;;;15.90;96.20;;;;;;4991270;28;20060;-57
2022/09/05 05:49:48;;;;;;;6.68;6.03;;;15.90;96.40;;;;;;4991226;28;20078;-55
2022/09/05 05:52:35;;;;;;;7.82;7.03;;;16.00;96.60;;;;;;5000428;28;20053;-54
2022/09/05 05:55:19;;;;;;;9.13;8.15;;;16.00;97.10;;;;;;5038361;28;20041;-57
2022/09/05 05:58:06;;;;;;;7.15;6.60;;;16.00;97.20;;;;;;5070070;28;20403;-53
2022/09/05 06:00:54;;;;;;;7.57;6.97;;;16.00;97.50;;;;;;5050493;28;20044;-55
2022/09/05 06:03:43;;;;;;;10.80;6.75;;;16.00;97.40;;;;;;5050780;28;20538;-55
2022/09/05 06:06:21;;;;;;;13.32;7.25;;;16.00;97.40;;;;;;5052544;28;20040;-54
2022/09/05 06:09:20;;;;;;;62.08;10.35;;;16.00;97.60;;;;;;5051166;28;20518;-54
2022/09/05 06:12:05;;;;;;;12.95;8.77;;;16.10;97.90;;;;;;5052047;28;20037;-57
2022/09/05 06:14:47;;;;;;;11.43;9.55;;;16.10;98.20;;;;;;5030685;28;20049;-54
2022/09/05 06:17:41;;;;;;;12.05;10.05;;;16.20;98.40;;;;;;5032199;28;20443;-55
2022/09/05 06:20:44;;;;;;;10.77;9.65;;;16.30;98.40;;;;;;5032029;28;20037;-54
2022/09/05 06:23:37;;;;;;;14.75;10.35;;;16.50;98.50;;;;;;5032881;28;20077;-56
2022/09/05 06:26:33;;;;;;;11.93;10.90;;;16.70;98.50;;;;;;5045448;28;20459;-57
2022/09/05 06:29:39;;;;;;;13.25;9.95;;;16.80;98.20;;;;;;5041660;28;20055;-54
2022/09/05 06:32:26;;;;;;;11.40;9.50;;;17.00;98.20;;;;;;5036957;28;20101;-56
2022/09/05 06:35:16;;;;;;;17.20;10.07;;;17.20;97.90;;;;;;5060899;28;20041;-55
2022/09/05 06:38:15;;;;;;;10.18;9.35;;;17.40;97.70;;;;;;5042020;28;20115;-54
2022/09/05 06:41:07;;;;;;;17.90;12.23;;;17.60;97.40;;;;;;5063944;28;20037;-54
2022/09/05 06:44:21;;;;;;;23.63;12.23;;;17.70;97.20;;;;;;5051285;28;20099;-55
2022/09/05 06:46:50;;;;;;;12.90;11.63;;;17.80;97.00;;;;;;5039420;28;20049;-56
2022/09/05 06:49:44;;;;;;;11.40;10.38;;;17.90;96.60;;;;;;5031767;28;20416;-55
2022/09/05 06:52:09;;;;;;;11.48;10.40;;;18.00;96.30;;;;;;5054271;28;20052;-54
2022/09/05 06:54:44;;;;;;;13.82;9.30;;;18.20;96.30;;;;;;5058206;28;20487;-55
2022/09/05 06:57:40;;;;;;;156.60;20.77;;;18.30;96.10;;;;;;5037220;28;20052;-55
2022/09/05 07:00:28;;;;;;;9.75;7.55;;;18.40;96.00;;;;;;5039464;28;20049;-54
2022/09/05 07:03:36;;;;;;;236.23;20.50;;;18.60;95.70;;;;;;5031418;28;20037;-56
2022/09/05 07:06:39;;;;;;;11.35;7.53;;;18.80;95.50;;;;;;5031192;28;20045;-59
2022/09/05 07:09:12;;;;;;;11.55;7.03;;;18.90;94.80;;;;;;5031578;28;20038;-57
2022/09/05 07:11:54;;;;;;;10.00;7.47;;;19.00;94.70;;;;;;5031270;28;20082;-55
2022/09/05 07:14:24;;;;;;;78.45;11.20;;;19.20;94.40;;;;;;5032198;28;20685;-58
2022/09/05 07:17:10;;;;;;;9.02;7.65;;;19.40;94.10;;;;;;5048691;28;20037;-59
2022/09/05 07:19:50;;;;;;;9.48;6.95;;;19.50;94.00;;;;;;5029776;28;20048;-57
2022/09/05 07:22:34;;;;;;;9.30;6.55;;;19.60;93.50;;;;;;5039130;28;20060;-55
2022/09/05 07:25:05;;;;;;;8.75;7.90;;;19.70;93.20;;;;;;5037506;28;20139;-56
2022/09/05 07:27:36;;;;;;;12.85;6.68;;;19.80;93.30;;;;;;5045410;28;20037;-55
2022/09/05 07:30:04;;;;;;;15.55;6.97;;;20.00;93.10;;;;;;5045790;28;20053;-54
2022/09/05 07:32:40;;;;;;;7.60;6.35;;;20.10;93.00;;;;;;5046702;28;20482;-54
2022/09/05 07:35:07;;;;;;;;;;;20.30;92.70;;;;;;5032249;28;20132;-54
2022/09/05 07:37:44;;;;;;;9.75;7.00;;;20.30;92.50;;;;;;5036377;28;19925;-53
2022/09/05 07:40:15;;;;;;;9.52;6.13;;;20.50;92.70;;;;;;5039583;28;20540;-52
2022/09/05 07:42:47;;;;;;;108.03;11.77;;;20.60;92.30;;;;;;5042090;28;20125;-53
2022/09/05 07:45:21;;;;;;;14.50;6.15;;;20.80;92.20;;;;;;5034283;28;20049;-56
2022/09/05 07:47:59;;;;;;;34.53;6.20;;;20.90;92.40;;;;;;5036003;28;20124;-55
2022/09/05 07:50:26;;;;;;;10.30;5.32;;;21.00;91.80;;;;;;5035727;28;20397;-56
2022/09/05 07:52:54;;;;;;;16.85;5.95;;;21.10;91.70;;;;;;5029650;28;20037;-57
2022/09/05 07:55:30;;;;;;;7.05;5.93;;;21.20;91.70;;;;;;5026972;28;20049;-56
2022/09/05 07:57:59;;;;;;;12.93;5.17;;;21.30;91.70;;;;;;5026354;28;20064;-57
2022/09/05 08:00:27;;;;;;;17.35;6.10;;;21.50;91.60;;;;;;5044895;28;20283;-56
2022/09/05 08:02:54;;;;;;;7.78;6.32;;;21.60;91.40;;;;;;5039184;28;20079;-56
2022/09/05 08:05:21;;;;;;;6.70;6.05;;;21.70;91.30;;;;;;5030791;28;20083;-57
2022/09/05 08:07:54;;;;;;;6.32;5.70;;;21.80;91.30;;;;;;5036442;28;20041;-55
2022/09/05 08:10:29;;;;;;;6.82;5.68;;;22.00;91.20;;;;;;5034030;28;20393;-55
2022/09/05 08:13:05;;;;;;;9.60;5.90;;;22.10;91.20;;;;;;5033546;28;20045;-55
2022/09/05 08:15:31;;;;;;;7.78;6.60;;;22.10;90.70;;;;;;5030775;28;20091;-55
2022/09/05 08:18:38;;;;;;;7.60;4.80;;;22.20;90.80;;;;;;5033599;28;20046;-53
2022/09/05 08:21:22;;;;;;;10.20;5.93;;;22.40;90.60;;;;;;5026224;28;20120;-57
2022/09/05 08:23:54;;;;;;;5.63;5.10;;;22.60;90.30;;;;;;5030973;28;20037;-56
2022/09/05 08:26:44;;;;;;;14.15;5.35;;;22.70;90.30;;;;;;5029133;28;20138;-52
2022/09/05 08:29:21;;;;;;;9.88;4.72;;;22.80;90.10;;;;;;5036226;28;20072;-55
2022/09/05 08:31:51;;;;;;;8.15;4.70;;;22.90;90.10;;;;;;5027778;28;20052;-54
2022/09/05 08:34:42;;;;;;;6.60;4.82;;;23.00;90.10;;;;;;5027366;28;20124;-54
2022/09/05 08:37:12;;;;;;;7.13;5.03;;;23.10;89.40;;;;;;5033994;28;20698;-55
2022/09/05 08:39:39;;;;;;;9.73;5.13;;;23.30;88.90;;;;;;5031966;28;20048;-55
2022/09/05 08:42:37;;;;;;;5.93;5.30;;;23.40;88.20;;;;;;5041852;28;20521;-55
2022/09/05 08:45:16;;;;;;;;;;;23.50;87.30;;;;;;5024960;28;20052;-55
2022/09/05 08:48:16;;;;;;;5.63;5.10;;;23.50;87.30;;;;;;5034665;28;19971;-55
2022/09/05 08:51:07;;;;;;;7.32;5.05;;;23.60;87.00;;;;;;5028736;28;20045;-56
2022/09/05 08:54:06;;;;;;;8.35;6.10;;;23.70;87.00;;;;;;5028239;28;20116;-54
2022/09/05 08:56:57;;;;;;;11.98;4.85;;;23.70;86.40;;;;;;5036577;28;20037;-55
2022/09/05 08:59:46;;;;;;;9.70;5.10;;;23.80;86.60;;;;;;5032094;28;20077;-55
2022/09/05 09:02:43;;;;;;;9.45;4.28;;;23.90;85.90;;;;;;5024396;28;20421;-54
2022/09/05 09:05:16;;;;;;;7.43;5.00;;;24.00;85.70;;;;;;5020064;28;20338;-56
2022/09/05 09:08:04;;;;;;;9.93;4.95;;;24.20;85.90;;;;;;5040420;28;20111;-55
2022/09/05 09:10:48;;;;;;;5.68;4.53;;;24.30;85.60;;;;;;5043202;28;20170;-56
2022/09/05 09:13:40;;;;;;;9.73;4.03;;;24.40;85.40;;;;;;5042693;28;20041;-55
2022/09/05 09:16:15;;;;;;;6.75;4.90;;;24.60;85.70;;;;;;5032327;28;20048;-56
2022/09/05 09:18:47;;;;;;;9.65;3.85;;;24.70;84.40;;;;;;5032210;28;20395;-53
2022/09/05 09:21:36;;;;;;;7.07;4.03;;;24.90;84.20;;;;;;5034089;28;20041;-56
2022/09/05 09:24:35;;;;;;;6.50;4.15;;;25.10;83.80;;;;;;5030296;28;20446;-56
2022/09/05 09:27:07;;;;;;;10.43;3.58;;;25.20;82.80;;;;;;5033167;28;20076;-55
2022/09/05 09:29:38;;;;;;;9.02;3.60;;;25.20;82.40;;;;;;5040795;28;20223;-54
2022/09/05 09:32:14;;;;;;;7.05;3.80;;;25.30;82.30;;;;;;5032050;28;20443;-54
2022/09/05 09:35:12;;;;;;;11.30;3.35;;;25.40;81.70;;;;;;5029188;28;20456;-55
2022/09/05 09:38:15;;;;;;;7.93;2.83;;;25.50;82.00;;;;;;5040292;28;20430;-54
2022/09/05 09:40:56;;;;;;;8.68;3.50;;;25.70;82.40;;;;;;5040921;28;20349;-53
2022/09/05 09:43:26;;;;;;;5.47;3.13;;;25.80;81.60;;;;;;5042021;28;20538;-56
2022/09/05 09:46:08;;;;;;;6.28;3.10;;;25.90;81.70;;;;;;5033198;28;20207;-56
2022/09/05 09:48:52;;;;;;;10.68;2.85;;;26.00;81.00;;;;;;5030306;28;20459;-55
2022/09/05 09:51:37;;;;;;;6.43;2.72;;;26.20;80.40;;;;;;5037987;28;20045;-54
2022/09/05 09:54:26;;;;;;;3.22;1.92;;;26.30;80.60;;;;;;5042579;28;20037;-55
2022/09/05 09:57:22;;;;;;;13.30;2.95;;;26.40;80.20;;;;;;5036127;28;20041;-55
2022/09/05 10:00:03;;;;;;;6.63;1.83;;;26.50;78.50;;;;;;5029914;28;20042;-54
2022/09/05 10:02:57;;;;;;;7.32;2.53;;;26.70;79.30;;;;;;5023583;28;20086;-56
2022/09/05 10:05:44;;;;;;;7.53;2.85;;;26.70;77.40;;;;;;5030283;28;20037;-56
2022/09/05 10:08:37;;;;;;;4.93;1.90;;;26.90;77.30;;;;;;5027762;28;20567;-56
2022/09/05 10:11:35;;;;;;;7.40;1.90;;;26.90;76.00;;;;;;5034097;28;20097;-53
2022/09/05 10:14:29;;;;;;;4.25;1.92;;;27.00;76.90;;;;;;5032340;28;20087;-57
2022/09/05 10:17:10;;;;;;;7.30;2.47;;;27.10;77.20;;;;;;5045891;28;20041;-55
2022/09/05 10:19:36;;;;;;;3.28;1.48;;;27.20;76.20;;;;;;5032149;28;20041;-56
2022/09/05 10:22:15;;;;;;;10.52;1.70;;;27.30;76.30;;;;;;5043825;28;20052;-56
2022/09/05 10:25:06;;;;;;;6.50;1.85;;;27.40;75.70;;;;;;5029142;28;20041;-55
2022/09/05 10:27:59;;;;;;;6.18;1.58;;;27.50;76.30;;;;;;5040899;28;20377;-57
2022/09/05 10:30:56;;;;;;;6.68;1.42;;;27.50;74.90;;;;;;5036714;28;20389;-56
2022/09/05 10:33:47;;;;;;;3.10;1.70;;;27.50;74.30;;;;;;5027646;28;20052;-55
2022/09/05 10:36:23;;;;;;;6.93;1.35;;;27.50;74.60;;;;;;5032482;28;20073;-56
2022/09/05 10:39:26;;;;;;;2.75;1.48;;;27.60;73.30;;;;;;5033044;28;20044;-56
2022/09/05 10:42:01;;;;;;;6.53;1.83;;;27.70;73.90;;;;;;5029789;28;20033;-57
2022/09/05 10:44:42;;;;;;;4.32;1.42;;;27.80;73.60;;;;;;5037127;28;20049;-57
2022/09/05 10:47:32;;;;;;;2.38;1.17;;;27.90;73.90;;;;;;5035578;28;20427;-56
2022/09/05 10:50:33;;;;;;;9.88;2.03;;;27.90;73.10;;;;;;5024734;28;20049;-56
2022/09/05 10:53:05;;;;;;;7.25;1.33;;;28.00;72.00;;;;;;5013660;28;20132;-56
2022/09/05 10:55:57;;;;;;;2.10;1.80;;;28.00;72.40;;;;;;5027823;28;20033;-56
2022/09/05 10:58:32;;;;;;;7.53;1.60;;;28.10;71.80;;;;;;5037223;28;20057;-56
2022/09/05 11:01:21;;;;;;;3.30;1.27;;;28.20;70.20;;;;;;5026338;28;20264;-56
2022/09/05 11:04:12;;;;;;;3.42;1.30;;;28.20;71.10;;;;;;5026885;28;20129;-56
2022/09/05 11:06:43;;;;;;;4.10;1.10;;;28.30;70.70;;;;;;5032004;28;20056;-57
2022/09/05 11:09:37;;;;;;;5.05;1.05;;;28.30;70.80;;;;;;5032066;28;20080;-55
2022/09/05 11:12:28;;;;;;;4.03;1.20;;;28.40;70.40;;;;;;5026523;28;20095;-56
2022/09/05 11:15:21;;;;;;;3.92;1.27;;;28.50;70.20;;;;;;5026452;28;20045;-57
2022/09/05 11:17:56;;;;;;;3.53;1.55;;;28.50;69.50;;;;;;5034679;28;20055;-55
2022/09/05 11:20:40;;;;;;;2.55;1.15;;;28.60;69.50;;;;;;5040877;28;20525;-57
2022/09/05 11:23:21;;;;;;;1.65;0.80;;;28.70;68.00;;;;;;5027422;28;20033;-56
2022/09/05 11:25:57;;;;;;;3.45;0.60;;;28.70;68.30;;;;;;5030274;28;20116;-56
2022/09/05 11:28:50;;;;;;;3.65;0.80;;;28.80;68.20;;;;;;5030521;28;20191;-50
2022/09/05 11:31:20;;;;;;;3.55;1.08;;;28.90;68.40;;;;;;5028088;28;20065;-50
2022/09/05 11:34:19;;;;;;;6.75;1.55;;;28.90;68.10;;;;;;5036305;28;20112;-54
2022/09/05 11:36:49;;;;;;;2.85;1.00;;;28.90;67.10;;;;;;5008752;28;20107;-55
2022/09/05 11:39:30;;;;;;;3.92;0.98;;;29.00;69.00;;;;;;5030283;28;20037;-51
2022/09/05 11:42:28;;;;;;;10.20;1.70;;;29.10;68.00;;;;;;5026816;28;20086;-53
2022/09/05 11:45:25;;;;;;;3.83;1.00;;;29.20;67.50;;;;;;5037434;28;20025;-56
2022/09/05 11:48:26;;;;;;;3.55;1.17;;;29.20;66.30;;;;;;5027113;28;20049;-56
2022/09/05 11:51:10;;;;;;;1.83;1.30;;;29.20;65.40;;;;;;5026095;28;20053;-55
2022/09/05 11:54:18;;;;;;;2.25;1.00;;;29.20;65.20;;;;;;5029965;28;20411;-54
2022/09/05 11:56:59;;;;;;;2.15;0.70;;;29.10;64.90;;;;;;5027640;28;20068;-56
2022/09/05 11:59:33;;;;;;;6.68;1.25;;;28.90;65.30;;;;;;5025657;28;20048;-56
2022/09/05 12:02:37;;;;;;;4.43;1.10;;;28.90;65.50;;;;;;5035831;28;20492;-56
2022/09/05 12:05:27;;;;;;;5.35;1.15;;;28.90;65.90;;;;;;5031999;28;20132;-56
2022/09/05 12:08:05;;;;;;;3.03;0.90;;;29.10;66.20;;;;;;5025427;28;20483;-55
2022/09/05 12:10:50;;;;;;;1.10;1.00;;;29.30;65.50;;;;;;5025944;28;20057;-55
2022/09/05 12:13:34;;;;;;;2.28;1.10;;;29.30;65.40;;;;;;5032122;28;20045;-55
2022/09/05 12:16:16;;;;;;;4.53;1.10;;;29.40;65.30;;;;;;5033897;28;20552;-58
2022/09/05 12:18:44;;;;;;;3.30;1.63;;;29.40;66.00;;;;;;5027604;28;20040;-57
2022/09/05 12:21:39;;;;;;;3.22;1.25;;;29.50;66.00;;;;;;5027261;28;20040;-55
2022/09/05 12:24:23;;;;;;;6.53;1.63;;;29.50;65.00;;;;;;5034899;28;20118;-52
2022/09/05 12:26:59;;;;;;;3.40;0.93;;;29.50;64.80;;;;;;5027160;28;20037;-55
2022/09/05 12:29:28;;;;;;;10.63;1.52;;;29.60;65.00;;;;;;5026205;28;20049;-52
2022/09/05 12:31:58;;;;;;;3.97;1.10;;;29.60;64.30;;;;;;5027723;28;20033;-57
2022/09/05 12:34:49;;;;;;;2.40;1.00;;;29.60;63.90;;;;;;5043870;28;20394;-55
2022/09/05 12:37:32;;;;;;;1.80;1.10;;;29.50;64.20;;;;;;5029711;28;20026;-55
2022/09/05 12:40:21;;;;;;;3.78;1.13;;;29.40;63.70;;;;;;5047859;28;20041;-57
2022/09/05 12:42:54;;;;;;;1.60;1.08;;;29.50;63.60;;;;;;5041031;28;20078;-56
2022/09/05 12:45:22;;;;;;;5.85;1.08;;;29.50;64.60;;;;;;5042809;28;20036;-56
2022/09/05 12:48:01;;;;;;;1.40;0.90;;;29.60;63.80;;;;;;5045755;28;20116;-55
2022/09/05 12:50:56;;;;;;;5.13;0.95;;;29.50;63.50;;;;;;5044079;28;20048;-55
2022/09/05 12:53:23;;;;;;;4.32;0.80;;;29.40;62.80;;;;;;5024861;28;20050;-56
2022/09/05 12:56:01;;;;;;;2.67;0.77;;;29.40;63.60;;;;;;5024798;28;20033;-53
2022/09/05 12:58:30;;;;;;;3.92;0.80;;;29.30;63.80;;;;;;5058085;28;20107;-53
2022/09/05 13:01:14;;;;;;;1.45;0.90;;;29.30;63.90;;;;;;5026098;28;20041;-54
2022/09/05 13:04:14;;;;;;;2.10;0.70;;;29.40;62.90;;;;;;5046449;28;20392;-55
2022/09/05 13:06:57;;;;;;;5.30;0.90;;;29.30;63.20;;;;;;5029824;28;20044;-56
2022/09/05 13:09:47;;;;;;;1.85;0.75;;;29.30;63.70;;;;;;5041433;28;20055;-52
2022/09/05 13:12:16;;;;;;;4.07;0.60;;;29.30;62.80;;;;;;5039259;28;20044;-55
2022/09/05 13:14:51;;;;;;;1.42;0.70;;;29.30;62.50;;;;;;5044492;28;20127;-52
2022/09/05 13:17:22;;;;;;;1.25;0.50;;;29.30;62.40;;;;;;5046490;28;20080;-55
2022/09/05 13:19:52;;;;;;;2.25;0.95;;;29.30;62.40;;;;;;5042631;28;20049;-54
2022/09/05 13:22:22;;;;;;;4.90;0.90;;;29.20;62.40;;;;;;5030551;28;20037;-53
2022/09/05 13:25:05;;;;;;;1.85;0.77;;;29.00;63.00;;;;;;5029348;28;20075;-54
2022/09/05 13:27:39;;;;;;;4.30;0.93;;;29.00;62.80;;;;;;5030110;28;20041;-56
2022/09/05 13:30:10;;;;;;;2.88;0.70;;;28.90;63.10;;;;;;5050538;28;20047;-53
2022/09/05 13:32:42;;;;;;;1.45;0.68;;;28.90;63.20;;;;;;5045601;28;20047;-56
2022/09/05 13:35:31;;;;;;;3.15;0.70;;;28.90;63.40;;;;;;5040148;28;20540;-55
2022/09/05 13:38:18;;;;;;;1.55;0.70;;;28.80;62.50;;;;;;5028642;28;20060;-56
2022/09/05 13:40:49;;;;;;;1.83;0.70;;;28.80;63.00;;;;;;5028940;28;20108;-55
2022/09/05 13:43:25;;;;;;;3.47;0.50;;;28.90;64.00;;;;;;5037315;28;20120;-55
2022/09/05 13:46:02;;;;;;;7.47;1.15;;;28.90;63.80;;;;;;5047523;28;20766;-53
2022/09/05 13:48:41;;;;;;;4.97;0.80;;;28.90;64.00;;;;;;5029320;28;20045;-57
2022/09/05 13:51:28;;;;;;;3.50;0.93;;;28.90;63.90;;;;;;5046685;28;20071;-60
2022/09/05 13:54:17;;;;;;;2.17;0.63;;;28.90;64.10;;;;;;5034708;28;20037;-57
2022/09/05 13:57:25;;;;;;;6.43;1.02;;;29.00;64.30;;;;;;5028058;28;20642;-58
2022/09/05 14:00:17;;;;;;;7.60;0.65;;;29.10;63.10;;;;;;5012416;28;20045;-57
2022/09/05 14:03:20;;;;;;;4.70;0.70;;;29.10;63.10;;;;;;5013216;28;20049;-55
2022/09/05 14:06:14;;;;;;;4.07;1.13;;;29.20;62.80;;;;;;5030165;28;20059;-57
2022/09/05 14:09:09;;;;;;;1.05;0.40;;;29.20;63.30;;;;;;5046756;28;20045;-57
2022/09/05 14:11:58;;;;;;;3.20;0.65;;;29.30;62.70;;;;;;5034258;28;20523;-54
2022/09/05 14:14:36;;;;;;;0.88;0.38;;;29.30;62.10;;;;;;5030035;28;20033;-57